Time,TemperatureF,DewpointF,PressureIn,WindDirection,WindDirectionDegrees,WindSpeedMPH,WindSpeedGustMPH,Humidity,HourlyPrecipIn,Conditions,Clouds,dailyrainin,SoftwareType,DateUTC
2013-02-25 00:00:00,67.3,66.9,29.92,NE,45,0.0,0.0,99,0.00,,,-99.99,meteobridge,2013-02-25 05:00:00,
2013-02-25 00:01:00,67.3,66.9,29.92,SE,135,0.0,0.0,99,0.00,,,0.00,meteobridge,2013-02-25 05:01:00,
2013-02-25 00:07:00,67.3,66.9,29.92,North,0,1.6,1.6,99,0.00,,,0.00,meteobridge,2013-02-25 05:07:00,
2013-02-25 00:12:00,67.3,66.9,29.93,North,0,5.4,5.4,99,0.00,,,0.00,meteobridge,2013-02-25 05:12:00,
2013-02-25 00:17:00,67.1,66.7,29.93,North,0,3.1,3.8,99,0.00,,,0.00,meteobridge,2013-02-25 05:17:00,
2013-02-25 00:22:00,66.9,66.6,29.93,North,0,3.8,5.4,99,0.00,,,0.00,meteobridge,2013-02-25 05:22:00,
2013-02-25 00:27:00,66.6,66.2,29.93,North,0,6.0,6.0,99,0.00,,,0.00,meteobridge,2013-02-25 05:27:00,
2013-02-25 00:32:00,66.6,66.2,29.93,NE,45,3.8,5.4,99,0.00,,,0.00,meteobridge,2013-02-25 05:32:00,
2013-02-25 00:37:00,66.6,66.2,29.93,North,0,3.8,3.8,99,0.00,,,0.00,meteobridge,2013-02-25 05:37:00,
2013-02-25 00:43:00,66.9,66.6,29.92,NE,45,2.2,3.1,99,0.00,,,0.00,meteobridge,2013-02-25 05:43:00,
2013-02-25 00:48:00,66.9,66.6,29.92,ESE,113,1.6,2.2,99,0.00,,,0.00,meteobridge,2013-02-25 05:48:00,
2013-02-25 00:53:00,67.1,66.7,29.92,SE,135,0.7,0.7,99,0.00,,,0.00,meteobridge,2013-02-25 05:53:00,
2013-02-25 00:58:00,67.3,66.9,29.91,SE,135,0.7,2.2,99,0.00,,,0.00,meteobridge,2013-02-25 05:58:00,
2013-02-25 01:03:00,67.3,66.9,29.91,SE,135,0.7,0.7,99,0.00,,,0.00,meteobridge,2013-02-25 06:03:00,
2013-02-25 01:08:00,67.5,67.1,29.90,East,90,2.2,2.2,99,0.00,,,0.00,meteobridge,2013-02-25 06:08:00,
2013-02-25 01:13:00,67.3,66.9,29.90,SE,135,2.2,3.1,99,0.00,,,0.00,meteobridge,2013-02-25 06:13:00,
2013-02-25 01:18:00,67.3,66.9,29.90,SE,135,2.2,3.1,99,0.00,,,0.00,meteobridge,2013-02-25 06:18:00,
2013-02-25 01:23:00,67.3,66.9,29.90,East,90,0.7,1.6,99,0.00,,,0.00,meteobridge,2013-02-25 06:23:00,
2013-02-25 01:28:00,67.1,66.7,29.90,SE,135,0.7,0.7,99,0.00,,,0.00,meteobridge,2013-02-25 06:28:00,
2013-02-25 01:34:00,66.9,66.6,29.91,SE,135,1.6,1.6,99,0.00,,,0.00,meteobridge,2013-02-25 06:34:00,
2013-02-25 01:39:00,66.9,66.6,29.90,SE,135,0.7,0.7,99,0.00,,,0.00,meteobridge,2013-02-25 06:39:00,
2013-02-25 01:44:00,66.6,66.2,29.89,NE,45,0.7,1.6,99,0.00,,,0.00,meteobridge,2013-02-25 06:44:00,
2013-02-25 01:49:00,66.6,66.2,29.89,East,90,1.6,1.6,99,0.00,,,0.00,meteobridge,2013-02-25 06:49:00,
2013-02-25 01:54:00,66.6,66.2,29.89,SE,135,0.0,0.7,99,0.00,,,0.00,meteobridge,2013-02-25 06:54:00,
2013-02-25 01:59:00,66.6,66.2,29.88,SE,135,0.0,0.0,99,0.00,,,0.00,meteobridge,2013-02-25 06:59:00,
2013-02-25 02:05:00,66.6,66.2,29.88,NE,45,0.0,0.0,99,0.00,,,0.00,meteobridge,2013-02-25 07:05:00,
2013-02-25 02:10:00,66.6,66.2,29.88,North,0,2.2,2.2,99,0.00,,,0.00,meteobridge,2013-02-25 07:10:00,
2013-02-25 02:15:00,66.6,66.2,29.88,NE,45,2.2,2.2,99,0.00,,,0.00,meteobridge,2013-02-25 07:15:00,
2013-02-25 02:20:00,66.6,66.2,29.88,North,0,0.7,2.2,99,0.00,,,0.00,meteobridge,2013-02-25 07:20:00,
2013-02-25 02:25:00,66.4,66.0,29.88,North,0,0.0,0.7,99,0.00,,,0.00,meteobridge,2013-02-25 07:25:00,
2013-02-25 02:30:00,66.4,66.0,29.88,North,0,0.0,0.7,99,0.00,,,0.00,meteobridge,2013-02-25 07:30:00,
2013-02-25 02:35:00,66.2,65.8,29.88,North,0,0.0,0.0,99,0.00,,,0.00,meteobridge,2013-02-25 07:35:00,
2013-02-25 02:41:00,66.0,65.7,29.88,North,0,0.0,0.0,99,0.00,,,0.00,meteobridge,2013-02-25 07:41:00,
2013-02-25 02:46:00,66.0,65.7,29.88,SW,225,0.0,0.7,99,0.00,,,0.00,meteobridge,2013-02-25 07:46:00,
2013-02-25 02:51:00,66.0,65.7,29.88,South,180,0.7,0.7,99,0.00,,,0.00,meteobridge,2013-02-25 07:51:00,
2013-02-25 02:56:00,66.0,65.7,29.88,South,180,0.7,0.7,99,0.00,,,0.00,meteobridge,2013-02-25 07:56:00,
2013-02-25 03:01:00,65.8,65.5,29.88,SE,135,0.0,0.0,99,0.00,,,0.00,meteobridge,2013-02-25 08:01:00,
2013-02-25 03:06:00,66.0,65.7,29.89,North,0,0.7,1.6,99,0.00,,,0.00,meteobridge,2013-02-25 08:06:00,
2013-02-25 03:12:00,65.8,65.5,29.89,North,0,0.7,0.7,99,0.00,,,0.00,meteobridge,2013-02-25 08:12:00,
2013-02-25 03:17:00,65.7,65.3,29.88,North,0,0.0,0.0,99,0.00,,,0.00,meteobridge,2013-02-25 08:17:00,
2013-02-25 03:22:00,65.5,65.1,29.88,North,0,0.0,0.0,99,0.00,,,0.00,meteobridge,2013-02-25 08:22:00,
2013-02-25 03:27:00,65.5,65.1,29.89,North,0,0.7,0.7,99,0.00,,,0.00,meteobridge,2013-02-25 08:27:00,
2013-02-25 03:32:00,65.5,65.1,29.88,North,0,0.0,0.0,99,0.00,,,0.00,meteobridge,2013-02-25 08:32:00,
2013-02-25 03:37:00,65.5,65.1,29.87,SE,135,0.0,0.0,99,0.00,,,0.00,meteobridge,2013-02-25 08:37:00,
2013-02-25 03:42:00,65.5,65.1,29.88,South,180,1.6,1.6,99,0.00,,,0.00,meteobridge,2013-02-25 08:42:00,
2013-02-25 03:48:00,65.3,64.9,29.88,South,180,0.0,0.0,99,0.00,,,0.00,meteobridge,2013-02-25 08:48:00,
2013-02-25 03:53:00,65.1,64.8,29.87,East,90,0.0,0.7,99,0.00,,,0.00,meteobridge,2013-02-25 08:53:00,
2013-02-25 03:58:00,65.1,64.8,29.87,SE,135,0.0,0.0,99,0.00,,,0.00,meteobridge,2013-02-25 08:58:00,
2013-02-25 04:03:00,64.9,64.6,29.87,SE,135,0.0,0.0,99,0.00,,,0.00,meteobridge,2013-02-25 09:03:00,
2013-02-25 04:08:00,64.8,64.4,29.86,South,180,0.0,0.7,99,0.00,,,0.00,meteobridge,2013-02-25 09:08:00,
2013-02-25 04:13:00,64.9,64.6,29.86,SE,135,0.0,1.6,99,0.00,,,0.00,meteobridge,2013-02-25 09:13:00,
2013-02-25 04:19:00,64.8,64.4,29.86,SE,135,0.0,0.0,99,0.00,,,0.00,meteobridge,2013-02-25 09:19:00,
2013-02-25 04:24:00,64.8,64.4,29.86,SE,135,0.0,0.0,99,0.00,,,0.00,meteobridge,2013-02-25 09:24:00,
2013-02-25 04:29:00,64.6,64.2,29.86,South,180,0.0,0.7,99,0.00,,,0.00,meteobridge,2013-02-25 09:29:00,
2013-02-25 04:34:00,64.4,64.0,29.86,South,180,0.0,0.7,99,0.00,,,0.00,meteobridge,2013-02-25 09:34:00,
2013-02-25 04:39:00,64.4,64.0,29.87,SW,225,0.7,0.7,99,0.00,,,0.00,meteobridge,2013-02-25 09:39:00,
2013-02-25 04:44:00,64.6,64.2,29.86,SE,135,0.7,1.6,99,0.00,,,0.00,meteobridge,2013-02-25 09:44:00,
2013-02-25 04:50:00,64.8,64.4,29.87,SE,135,0.7,1.6,99,0.00,,,0.00,meteobridge,2013-02-25 09:50:00,
2013-02-25 04:55:00,64.9,64.6,29.86,SE,135,1.6,1.6,99,0.00,,,0.00,meteobridge,2013-02-25 09:55:00,
2013-02-25 05:00:00,64.6,64.2,29.86,South,180,1.6,1.6,99,0.00,,,0.00,meteobridge,2013-02-25 10:00:00,
2013-02-25 05:05:00,64.8,64.4,29.86,SE,135,0.7,0.7,99,0.00,,,0.00,meteobridge,2013-02-25 10:05:00,
2013-02-25 05:10:00,64.8,64.4,29.86,South,180,0.0,0.0,99,0.00,,,0.00,meteobridge,2013-02-25 10:10:00,
2013-02-25 05:15:00,64.8,64.4,29.86,South,180,0.0,0.0,99,0.00,,,0.00,meteobridge,2013-02-25 10:15:00,
2013-02-25 05:21:00,64.8,64.4,29.86,South,180,1.6,1.6,99,0.00,,,0.00,meteobridge,2013-02-25 10:21:00,
2013-02-25 05:26:00,64.9,64.6,29.86,South,180,0.7,0.7,99,0.00,,,0.00,meteobridge,2013-02-25 10:26:00,
2013-02-25 05:31:00,65.1,64.8,29.85,South,180,0.7,0.7,99,0.00,,,0.00,meteobridge,2013-02-25 10:31:00,
2013-02-25 05:36:00,65.1,64.8,29.85,South,180,1.6,1.6,99,0.00,,,0.00,meteobridge,2013-02-25 10:36:00,
2013-02-25 05:41:00,65.5,65.1,29.85,South,180,3.1,3.1,99,0.00,,,0.00,meteobridge,2013-02-25 10:41:00,
2013-02-25 05:46:00,65.5,65.1,29.85,SE,135,0.7,1.6,99,0.00,,,0.00,meteobridge,2013-02-25 10:46:00,
2013-02-25 05:52:00,65.3,64.9,29.85,North,0,0.0,0.0,99,0.00,,,0.00,meteobridge,2013-02-25 10:52:00,
2013-02-25 05:57:00,65.1,64.8,29.86,North,0,0.0,0.0,99,0.00,,,0.00,meteobridge,2013-02-25 10:57:00,
2013-02-25 06:02:00,64.9,64.6,29.86,North,0,0.0,0.0,99,0.00,,,0.00,meteobridge,2013-02-25 11:02:00,
2013-02-25 06:07:00,64.8,64.4,29.86,SE,135,2.2,3.1,99,0.00,,,0.00,meteobridge,2013-02-25 11:07:00,
2013-02-25 06:12:00,65.3,64.9,29.86,SE,135,0.0,0.0,99,0.00,,,0.00,meteobridge,2013-02-25 11:12:00,
2013-02-25 06:17:00,65.3,64.9,29.86,East,90,1.6,1.6,99,0.00,,,0.00,meteobridge,2013-02-25 11:17:00,
2013-02-25 06:22:00,65.3,64.9,29.86,SE,135,1.6,1.6,99,0.00,,,0.00,meteobridge,2013-02-25 11:22:00,
2013-02-25 06:28:00,65.3,64.9,29.86,SE,135,0.7,1.6,99,0.00,,,0.00,meteobridge,2013-02-25 11:28:00,
2013-02-25 06:33:00,65.3,64.9,29.86,SE,135,1.6,1.6,99,0.00,,,0.00,meteobridge,2013-02-25 11:33:00,
2013-02-25 06:38:00,65.3,64.9,29.86,East,90,2.2,2.2,99,0.00,,,0.00,meteobridge,2013-02-25 11:38:00,
2013-02-25 06:43:00,65.1,64.8,29.86,East,90,0.7,1.6,99,0.00,,,0.00,meteobridge,2013-02-25 11:43:00,
2013-02-25 06:48:00,65.1,64.8,29.86,East,90,1.6,1.6,99,0.00,,,0.00,meteobridge,2013-02-25 11:48:00,
2013-02-25 06:53:00,65.1,64.8,29.87,East,90,1.6,1.6,99,0.00,,,0.00,meteobridge,2013-02-25 11:53:00,
2013-02-25 06:59:00,65.3,64.9,29.87,East,90,0.7,1.6,99,0.00,,,0.00,meteobridge,2013-02-25 11:59:00,
2013-02-25 07:04:00,65.3,64.9,29.87,SE,135,1.6,1.6,99,0.00,,,0.00,meteobridge,2013-02-25 12:04:00,
2013-02-25 07:09:00,65.3,64.9,29.88,East,90,1.6,1.6,99,0.00,,,0.00,meteobridge,2013-02-25 12:09:00,
2013-02-25 07:14:00,65.5,65.1,29.88,SE,135,0.0,0.0,99,0.00,,,0.00,meteobridge,2013-02-25 12:14:00,
2013-02-25 07:19:00,65.7,65.3,29.88,SE,135,1.6,1.6,99,0.00,,,0.00,meteobridge,2013-02-25 12:19:00,
2013-02-25 07:24:00,65.8,65.5,29.88,ESE,113,1.6,1.6,99,0.00,,,0.00,meteobridge,2013-02-25 12:24:00,
2013-02-25 07:30:00,66.2,65.8,29.88,South,180,0.0,0.0,99,0.00,,,0.00,meteobridge,2013-02-25 12:30:00,
2013-02-25 07:35:00,66.6,66.2,29.89,WSW,248,0.0,0.0,99,0.00,,,0.00,meteobridge,2013-02-25 12:35:00,
2013-02-25 07:40:00,66.7,66.4,29.89,South,180,0.0,0.0,99,0.00,,,0.00,meteobridge,2013-02-25 12:40:00,
2013-02-25 07:45:00,67.1,66.7,29.91,West,270,0.0,0.0,99,0.00,,,0.00,meteobridge,2013-02-25 12:45:00,
2013-02-25 07:50:00,67.3,66.9,29.91,West,270,0.0,0.0,99,0.00,,,0.00,meteobridge,2013-02-25 12:50:00,
2013-02-25 07:55:00,67.6,67.3,29.91,SE,135,0.0,0.0,99,0.00,,,0.00,meteobridge,2013-02-25 12:55:00,
2013-02-25 08:01:00,68.0,67.6,29.91,SE,135,0.0,0.0,99,0.00,,,0.00,meteobridge,2013-02-25 13:01:00,
2013-02-25 08:06:00,68.0,67.6,29.91,SE,135,2.2,2.2,99,0.00,,,0.00,meteobridge,2013-02-25 13:06:00,
2013-02-25 08:11:00,68.7,68.4,29.90,East,90,1.6,2.2,99,0.00,,,0.00,meteobridge,2013-02-25 13:11:00,
2013-02-25 08:16:00,69.4,69.1,29.90,East,90,2.2,3.8,99,0.00,,,0.00,meteobridge,2013-02-25 13:16:00,
2013-02-25 08:21:00,69.8,69.3,29.90,East,90,3.1,3.8,98,0.00,,,0.00,meteobridge,2013-02-25 13:21:00,
2013-02-25 08:26:00,69.6,69.3,29.90,South,180,4.5,4.5,99,0.00,,,0.00,meteobridge,2013-02-25 13:26:00,
2013-02-25 08:32:00,69.3,68.9,29.90,SE,135,3.1,4.5,99,0.00,,,0.00,meteobridge,2013-02-25 13:32:00,
2013-02-25 08:37:00,70.2,69.6,29.90,ESE,113,2.2,3.8,98,0.00,,,0.00,meteobridge,2013-02-25 13:37:00,
2013-02-25 08:42:00,70.9,70.3,29.90,SE,135,4.5,4.5,98,0.00,,,0.00,meteobridge,2013-02-25 13:42:00,
2013-02-25 08:47:00,71.8,70.9,29.90,SE,135,4.5,4.5,97,0.00,,,0.00,meteobridge,2013-02-25 13:47:00,
2013-02-25 08:52:00,73.0,72.1,29.91,SE,135,4.5,4.5,97,0.00,,,0.00,meteobridge,2013-02-25 13:52:00,
2013-02-25 08:57:00,73.2,72.0,29.90,East,90,3.8,8.3,96,0.00,,,0.00,meteobridge,2013-02-25 13:57:00,
2013-02-25 09:03:00,73.2,71.4,29.90,SSE,158,6.9,6.9,94,0.00,,,0.00,meteobridge,2013-02-25 14:03:00,
2013-02-25 09:08:00,73.0,71.2,29.90,SE,135,3.1,6.0,94,0.00,,,0.00,meteobridge,2013-02-25 14:08:00,
2013-02-25 09:13:00,72.7,70.9,29.90,SE,135,3.8,6.9,94,0.00,,,0.00,meteobridge,2013-02-25 14:13:00,
2013-02-25 09:18:00,73.2,71.8,29.91,SSE,158,4.5,5.4,95,0.00,,,0.00,meteobridge,2013-02-25 14:18:00,
2013-02-25 09:23:00,74.1,72.9,29.91,South,180,2.2,3.8,96,0.00,,,0.00,meteobridge,2013-02-25 14:23:00,
2013-02-25 09:29:00,74.5,73.2,29.91,SE,135,4.5,5.4,96,0.00,,,0.00,meteobridge,2013-02-25 14:29:00,
2013-02-25 09:34:00,74.7,73.4,29.91,SSE,158,4.5,5.4,96,0.00,,,0.00,meteobridge,2013-02-25 14:34:00,
2013-02-25 09:39:00,75.0,73.4,29.91,SE,135,4.5,6.9,95,0.00,,,0.00,meteobridge,2013-02-25 14:39:00,
2013-02-25 09:44:00,75.4,73.6,29.91,South,180,3.1,4.5,94,0.00,,,0.00,meteobridge,2013-02-25 14:44:00,
2013-02-25 09:49:00,75.7,73.9,29.91,SE,135,5.4,5.4,94,0.00,,,0.00,meteobridge,2013-02-25 14:49:00,
2013-02-25 09:54:00,75.9,73.8,29.91,South,180,3.1,4.5,93,0.00,,,0.00,meteobridge,2013-02-25 14:54:00,
2013-02-25 09:59:00,77.0,74.1,29.91,South,180,4.5,5.4,91,0.00,,,0.00,meteobridge,2013-02-25 14:59:00,
2013-02-25 10:04:00,77.0,73.8,29.91,South,180,6.0,6.0,90,0.00,,,0.00,meteobridge,2013-02-25 15:04:00,
2013-02-25 10:10:00,76.6,73.8,29.91,South,180,2.2,5.4,91,0.00,,,0.00,meteobridge,2013-02-25 15:10:00,
2013-02-25 10:15:00,77.2,73.9,29.91,SE,135,5.4,6.0,90,0.00,,,0.00,meteobridge,2013-02-25 15:15:00,
2013-02-25 10:20:00,77.4,73.6,29.91,South,180,5.4,9.2,88,0.00,,,0.00,meteobridge,2013-02-25 15:20:00,
2013-02-25 10:25:00,78.1,73.9,29.91,South,180,6.9,8.3,87,0.00,,,0.00,meteobridge,2013-02-25 15:25:00,
2013-02-25 10:30:00,78.6,74.1,29.91,South,180,5.4,7.6,86,0.00,,,0.00,meteobridge,2013-02-25 15:30:00,
2013-02-25 10:35:00,78.6,74.1,29.91,South,180,9.8,9.8,86,0.00,,,0.00,meteobridge,2013-02-25 15:35:00,
2013-02-25 10:41:00,79.3,74.1,29.91,South,180,7.6,7.6,84,0.00,,,0.00,meteobridge,2013-02-25 15:41:00,
2013-02-25 10:46:00,80.6,74.3,29.91,South,180,6.9,9.2,81,0.00,,,0.00,meteobridge,2013-02-25 15:46:00,
2013-02-25 10:51:00,79.7,73.8,29.90,SW,225,6.0,6.0,82,0.00,,,0.00,meteobridge,2013-02-25 15:51:00,
2013-02-25 10:56:00,80.2,74.3,29.90,South,180,7.6,9.2,82,0.00,,,0.00,meteobridge,2013-02-25 15:56:00,
2013-02-25 11:01:00,81.7,73.8,29.90,South,180,10.7,11.4,77,0.00,,,0.00,meteobridge,2013-02-25 16:01:00,
2013-02-25 11:06:00,81.9,73.6,29.90,SSW,203,6.0,9.2,76,0.00,,,0.00,meteobridge,2013-02-25 16:06:00,
2013-02-25 11:12:00,82.9,73.4,29.89,South,180,9.8,9.8,73,0.00,,,0.00,meteobridge,2013-02-25 16:12:00,
2013-02-25 11:17:00,82.9,73.0,29.89,South,180,10.7,13.6,72,0.00,,,0.00,meteobridge,2013-02-25 16:17:00,
2013-02-25 11:22:00,82.6,72.1,29.89,South,180,7.6,9.8,71,0.00,,,0.00,meteobridge,2013-02-25 16:22:00,
2013-02-25 11:27:00,83.8,73.0,29.89,South,180,12.1,13.6,70,0.00,,,0.00,meteobridge,2013-02-25 16:27:00,
2013-02-25 11:32:00,82.4,72.0,29.88,South,180,8.3,8.3,71,0.00,,,0.00,meteobridge,2013-02-25 16:32:00,
2013-02-25 11:37:00,82.9,73.0,29.87,South,180,6.0,6.0,72,0.00,,,0.00,meteobridge,2013-02-25 16:37:00,
2013-02-25 11:43:00,83.8,73.4,29.87,SW,225,8.3,9.2,71,0.00,,,0.00,meteobridge,2013-02-25 16:43:00,
2013-02-25 11:48:00,84.2,72.0,29.87,ESE,113,9.8,14.5,67,0.00,,,0.00,meteobridge,2013-02-25 16:48:00,
2013-02-25 11:53:00,86.0,72.3,29.87,South,180,9.8,11.4,64,0.00,,,0.00,meteobridge,2013-02-25 16:53:00,
2013-02-25 11:58:00,86.2,71.6,29.87,South,180,12.1,12.1,62,0.00,,,0.00,meteobridge,2013-02-25 16:58:00,
2013-02-25 12:03:00,85.8,71.8,29.87,SW,225,12.1,12.1,63,0.00,,,0.00,meteobridge,2013-02-25 17:03:00,
2013-02-25 12:08:00,84.7,70.7,29.87,South,180,9.8,13.0,63,0.00,,,0.00,meteobridge,2013-02-25 17:08:00,
2013-02-25 12:14:00,83.8,70.9,29.87,South,180,9.2,9.8,65,0.00,,,0.00,meteobridge,2013-02-25 17:14:00,
2013-02-25 12:19:00,84.6,71.1,29.87,South,180,10.7,11.4,64,0.00,,,0.00,meteobridge,2013-02-25 17:19:00,
2013-02-25 12:24:00,85.3,70.3,29.87,SW,225,12.1,12.1,61,0.00,,,0.00,meteobridge,2013-02-25 17:24:00,
2013-02-25 12:29:00,84.2,70.2,29.86,West,270,9.8,11.4,63,0.00,,,0.00,meteobridge,2013-02-25 17:29:00,
2013-02-25 12:34:00,84.0,71.1,29.85,SSW,203,8.3,13.0,65,0.00,,,0.00,meteobridge,2013-02-25 17:34:00,
2013-02-25 12:39:00,85.8,70.3,29.86,SW,225,9.8,14.5,60,0.00,,,0.00,meteobridge,2013-02-25 17:39:00,
2013-02-25 12:45:00,85.8,70.9,29.86,SW,225,9.8,12.1,61,0.00,,,0.00,meteobridge,2013-02-25 17:45:00,
2013-02-25 12:50:00,86.2,70.2,29.86,SW,225,12.1,13.0,59,0.00,,,0.00,meteobridge,2013-02-25 17:50:00,
2013-02-25 12:55:00,86.7,70.2,29.85,WSW,248,11.4,11.4,58,0.00,,,0.00,meteobridge,2013-02-25 17:55:00,
2013-02-25 13:00:00,87.1,70.5,29.85,SW,225,11.4,11.4,58,0.00,,,0.00,meteobridge,2013-02-25 18:00:00,
2013-02-25 13:05:00,86.7,69.6,29.86,SW,225,14.5,14.5,57,0.00,,,0.00,meteobridge,2013-02-25 18:05:00,
2013-02-25 13:10:00,86.9,68.7,29.85,South,180,11.4,13.6,55,0.00,,,0.00,meteobridge,2013-02-25 18:10:00,
2013-02-25 13:16:00,87.3,68.5,29.85,SW,225,14.5,14.5,54,0.00,,,0.00,meteobridge,2013-02-25 18:16:00,
2013-02-25 13:21:00,87.1,68.4,29.85,SSW,203,12.1,14.5,54,0.00,,,0.00,meteobridge,2013-02-25 18:21:00,
2013-02-25 13:26:00,87.1,68.9,29.84,SSW,203,13.0,13.0,55,0.00,,,0.00,meteobridge,2013-02-25 18:26:00,
2013-02-25 13:31:00,86.0,68.5,29.84,SE,135,12.1,12.1,56,0.00,,,0.00,meteobridge,2013-02-25 18:31:00,
2013-02-25 13:36:00,85.5,69.1,29.84,West,270,10.7,13.6,58,0.00,,,0.00,meteobridge,2013-02-25 18:36:00,
2013-02-25 13:41:00,86.5,69.4,29.85,South,180,9.2,10.7,57,0.00,,,0.00,meteobridge,2013-02-25 18:41:00,
2013-02-25 13:46:00,87.6,71.1,29.84,SW,225,9.8,9.8,58,0.00,,,0.00,meteobridge,2013-02-25 18:46:00,
2013-02-25 13:51:00,86.4,70.3,29.84,SW,225,11.4,11.4,59,0.00,,,0.00,meteobridge,2013-02-25 18:51:00,
2013-02-25 13:57:00,85.5,69.1,29.84,WSW,248,9.2,12.1,58,0.00,,,0.00,meteobridge,2013-02-25 18:57:00,
2013-02-25 14:02:00,85.3,69.3,29.84,West,270,9.8,13.0,59,0.00,,,0.00,meteobridge,2013-02-25 19:02:00,
2013-02-25 14:07:00,85.5,69.1,29.84,WSW,248,13.0,13.0,58,0.00,,,0.00,meteobridge,2013-02-25 19:07:00,
2013-02-25 14:12:00,84.6,69.1,29.84,SW,225,9.2,12.1,60,0.00,,,0.00,meteobridge,2013-02-25 19:12:00,
2013-02-25 14:17:00,85.8,70.3,29.84,SSE,158,15.2,15.2,60,0.00,,,0.00,meteobridge,2013-02-25 19:17:00,
2013-02-25 14:22:00,87.1,70.5,29.84,South,180,7.6,10.7,58,0.00,,,0.00,meteobridge,2013-02-25 19:22:00,
2013-02-25 14:28:00,86.7,70.2,29.83,SW,225,12.1,14.5,58,0.00,,,0.00,meteobridge,2013-02-25 19:28:00,
2013-02-25 14:33:00,86.5,70.5,29.84,South,180,10.7,10.7,59,0.00,,,0.00,meteobridge,2013-02-25 19:33:00,
2013-02-25 14:38:00,86.5,70.5,29.84,SW,225,11.4,12.1,59,0.00,,,0.00,meteobridge,2013-02-25 19:38:00,
2013-02-25 14:43:00,85.8,70.9,29.83,South,180,13.0,13.0,61,0.00,,,0.00,meteobridge,2013-02-25 19:43:00,
2013-02-25 14:48:00,86.9,71.4,29.83,WSW,248,14.5,14.5,60,0.00,,,0.00,meteobridge,2013-02-25 19:48:00,
2013-02-25 14:53:00,87.3,72.1,29.83,NW,315,6.9,6.9,61,0.00,,,0.00,meteobridge,2013-02-25 19:53:00,
2013-02-25 14:59:00,86.4,69.8,29.82,SW,225,13.6,15.9,58,0.00,,,0.00,meteobridge,2013-02-25 19:59:00,
2013-02-25 15:04:00,86.0,68.9,29.82,South,180,10.7,10.7,57,0.00,,,0.00,meteobridge,2013-02-25 20:04:00,
2013-02-25 15:09:00,84.0,69.1,29.82,SSW,203,14.5,16.8,61,0.00,,,0.00,meteobridge,2013-02-25 20:09:00,
2013-02-25 15:14:00,84.9,68.0,29.82,SSW,203,17.4,17.4,57,0.00,,,0.00,meteobridge,2013-02-25 20:14:00,
2013-02-25 15:19:00,85.3,69.3,29.82,SW,225,9.2,13.6,59,0.00,,,0.00,meteobridge,2013-02-25 20:19:00,
2013-02-25 15:24:00,85.8,69.3,29.81,South,180,14.5,14.5,58,0.00,,,0.00,meteobridge,2013-02-25 20:24:00,
2013-02-25 15:30:00,86.4,69.3,29.81,South,180,15.2,15.2,57,0.00,,,0.00,meteobridge,2013-02-25 20:30:00,
2013-02-25 15:35:00,86.2,69.6,29.82,SW,225,11.4,11.4,58,0.00,,,0.00,meteobridge,2013-02-25 20:35:00,
2013-02-25 15:40:00,86.2,69.6,29.82,South,180,11.4,11.4,58,0.00,,,0.00,meteobridge,2013-02-25 20:40:00,
2013-02-25 15:45:00,85.8,69.8,29.81,South,180,9.2,14.5,59,0.00,,,0.00,meteobridge,2013-02-25 20:45:00,
2013-02-25 15:50:00,85.8,69.8,29.81,SW,225,10.7,13.0,59,0.00,,,0.00,meteobridge,2013-02-25 20:50:00,
2013-02-25 15:55:00,86.2,69.6,29.81,South,180,11.4,11.4,58,0.00,,,0.00,meteobridge,2013-02-25 20:55:00,
2013-02-25 16:00:00,84.4,68.5,29.81,South,180,11.4,13.0,59,0.00,,,0.00,meteobridge,2013-02-25 21:00:00,
2013-02-25 16:05:00,84.0,70.0,29.81,South,180,9.2,13.0,63,0.00,,,0.00,meteobridge,2013-02-25 21:05:00,
2013-02-25 16:11:00,83.7,68.7,29.82,South,180,8.3,13.0,61,0.00,,,0.00,meteobridge,2013-02-25 21:11:00,
2013-02-25 16:16:00,84.7,68.4,29.82,SSW,203,9.2,9.8,58,0.00,,,0.00,meteobridge,2013-02-25 21:16:00,
2013-02-25 16:21:00,85.6,68.7,29.81,South,180,10.7,10.7,57,0.00,,,0.00,meteobridge,2013-02-25 21:21:00,
2013-02-25 16:26:00,85.3,68.4,29.82,SSW,203,9.2,13.0,57,0.00,,,0.00,meteobridge,2013-02-25 21:26:00,
2013-02-25 16:31:00,84.6,67.6,29.82,West,270,12.1,12.1,57,0.00,,,0.00,meteobridge,2013-02-25 21:31:00,
2013-02-25 16:36:00,83.5,67.6,29.82,South,180,6.0,9.2,59,0.00,,,0.00,meteobridge,2013-02-25 21:36:00,
2013-02-25 16:42:00,83.3,67.5,29.82,SW,225,6.9,10.7,59,0.00,,,0.00,meteobridge,2013-02-25 21:42:00,
2013-02-25 16:47:00,83.1,67.3,29.82,South,180,9.8,9.8,59,0.00,,,0.00,meteobridge,2013-02-25 21:47:00,
2013-02-25 16:52:00,83.3,68.0,29.81,South,180,8.3,9.8,60,0.00,,,0.00,meteobridge,2013-02-25 21:52:00,
2013-02-25 16:57:00,84.0,68.2,29.81,South,180,8.3,9.2,59,0.00,,,0.00,meteobridge,2013-02-25 21:57:00,
2013-02-25 17:02:00,84.2,67.8,29.81,SW,225,11.4,11.4,58,0.00,,,0.00,meteobridge,2013-02-25 22:02:00,
2013-02-25 17:07:00,84.0,68.2,29.81,SSW,203,8.3,11.4,59,0.00,,,0.00,meteobridge,2013-02-25 22:07:00,
2013-02-25 17:13:00,84.2,67.8,29.80,South,180,8.3,8.3,58,0.00,,,0.00,meteobridge,2013-02-25 22:13:00,
2013-02-25 17:18:00,83.1,67.8,29.80,SW,225,6.9,9.2,60,0.00,,,0.00,meteobridge,2013-02-25 22:18:00,
2013-02-25 17:23:00,83.5,68.2,29.80,SW,225,8.3,8.3,60,0.00,,,0.00,meteobridge,2013-02-25 22:23:00,
2013-02-25 17:28:00,83.7,68.4,29.81,South,180,6.0,7.6,60,0.00,,,0.00,meteobridge,2013-02-25 22:28:00,
2013-02-25 17:33:00,83.5,68.5,29.80,South,180,9.2,9.8,61,0.00,,,0.00,meteobridge,2013-02-25 22:33:00,
2013-02-25 17:38:00,82.9,69.4,29.80,SW,225,6.0,10.7,64,0.00,,,0.00,meteobridge,2013-02-25 22:38:00,
2013-02-25 17:44:00,82.4,69.4,29.80,SW,225,7.6,7.6,65,0.00,,,0.00,meteobridge,2013-02-25 22:44:00,
2013-02-25 17:49:00,81.9,69.8,29.80,South,180,7.6,9.2,67,0.00,,,0.00,meteobridge,2013-02-25 22:49:00,
2013-02-25 17:54:00,81.3,69.8,29.80,South,180,7.6,7.6,68,0.00,,,0.00,meteobridge,2013-02-25 22:54:00,
2013-02-25 17:59:00,81.1,70.3,29.81,South,180,6.0,6.0,70,0.00,,,0.00,meteobridge,2013-02-25 22:59:00,
2013-02-25 18:04:00,81.0,70.7,29.80,SW,225,6.0,6.9,71,0.00,,,0.00,meteobridge,2013-02-25 23:04:00,
2013-02-25 18:09:00,80.8,70.5,29.81,South,180,6.0,6.0,71,0.00,,,0.00,meteobridge,2013-02-25 23:09:00,
2013-02-25 18:15:00,80.4,70.9,29.81,SW,225,3.8,4.5,73,0.00,,,0.00,meteobridge,2013-02-25 23:15:00,
2013-02-25 18:20:00,79.9,70.9,29.81,South,180,3.8,5.4,74,0.00,,,0.00,meteobridge,2013-02-25 23:20:00,
2013-02-25 18:25:00,79.3,71.1,29.81,SW,225,5.4,6.9,76,0.00,,,0.00,meteobridge,2013-02-25 23:25:00,
2013-02-25 18:30:00,78.8,71.1,29.82,South,180,3.1,4.5,77,0.00,,,0.00,meteobridge,2013-02-25 23:30:00,
2013-02-25 18:35:00,78.4,71.4,29.82,South,180,2.2,3.1,79,0.00,,,0.00,meteobridge,2013-02-25 23:35:00,
2013-02-25 18:40:00,78.3,71.2,29.81,South,180,3.8,3.8,79,0.00,,,0.00,meteobridge,2013-02-25 23:40:00,
2013-02-25 18:46:00,77.9,71.6,29.82,SE,135,3.8,3.8,81,0.00,,,0.00,meteobridge,2013-02-25 23:46:00,
2013-02-25 18:51:00,77.7,71.4,29.82,South,180,3.8,4.5,81,0.00,,,0.00,meteobridge,2013-02-25 23:51:00,
2013-02-25 18:56:00,77.5,71.6,29.82,South,180,3.8,4.5,82,0.00,,,0.00,meteobridge,2013-02-25 23:56:00,
2013-02-25 19:01:00,77.2,71.6,29.82,SSE,158,2.2,3.8,83,0.00,,,0.00,meteobridge,2013-02-26 00:01:00,
2013-02-25 19:06:00,77.0,71.4,29.82,South,180,2.2,2.2,83,0.00,,,0.00,meteobridge,2013-02-26 00:06:00,
2013-02-25 19:11:00,76.6,71.4,29.82,South,180,2.2,3.1,84,0.00,,,0.00,meteobridge,2013-02-26 00:11:00,
2013-02-25 19:16:00,76.3,71.4,29.82,South,180,1.6,1.6,85,0.00,,,0.00,meteobridge,2013-02-26 00:16:00,
2013-02-25 19:22:00,75.7,70.9,29.82,South,180,1.6,2.2,85,0.00,,,0.00,meteobridge,2013-02-26 00:22:00,
2013-02-25 19:27:00,75.4,70.9,29.82,SE,135,3.1,3.1,86,0.00,,,0.00,meteobridge,2013-02-26 00:27:00,
2013-02-25 19:32:00,75.2,70.7,29.82,South,180,2.2,2.2,86,0.00,,,0.00,meteobridge,2013-02-26 00:32:00,
2013-02-25 19:37:00,74.8,71.1,29.82,South,180,1.6,1.6,88,0.00,,,0.00,meteobridge,2013-02-26 00:37:00,
2013-02-25 19:42:00,74.7,70.9,29.82,SE,135,2.2,2.2,88,0.00,,,0.00,meteobridge,2013-02-26 00:42:00,
2013-02-25 19:47:00,74.5,71.1,29.82,South,180,2.2,2.2,89,0.00,,,0.00,meteobridge,2013-02-26 00:47:00,
2013-02-25 19:53:00,74.3,70.9,29.82,South,180,2.2,3.1,89,0.00,,,0.00,meteobridge,2013-02-26 00:53:00,
2013-02-25 19:58:00,74.1,71.1,29.82,South,180,2.2,2.2,90,0.00,,,0.00,meteobridge,2013-02-26 00:58:00,
2013-02-25 20:03:00,74.1,71.1,29.82,SE,135,0.7,2.2,90,0.00,,,0.00,meteobridge,2013-02-26 01:03:00,
2013-02-25 20:08:00,73.9,71.1,29.82,South,180,2.2,2.2,91,0.00,,,0.00,meteobridge,2013-02-26 01:08:00,
2013-02-25 20:13:00,73.8,70.9,29.83,SE,135,1.6,1.6,91,0.00,,,0.00,meteobridge,2013-02-26 01:13:00,
2013-02-25 20:18:00,73.6,70.7,29.83,SE,135,2.2,2.2,91,0.00,,,0.00,meteobridge,2013-02-26 01:18:00,
2013-02-25 20:24:00,73.4,70.9,29.83,South,180,1.6,1.6,92,0.00,,,0.00,meteobridge,2013-02-26 01:24:00,
2013-02-25 20:29:00,73.2,70.5,29.83,South,180,0.7,1.6,91,0.00,,,0.00,meteobridge,2013-02-26 01:29:00,
2013-02-25 20:34:00,73.0,70.5,29.83,South,180,1.6,2.2,92,0.00,,,0.00,meteobridge,2013-02-26 01:34:00,
2013-02-25 20:39:00,72.9,70.3,29.83,South,180,1.6,1.6,92,0.00,,,0.00,meteobridge,2013-02-26 01:39:00,
2013-02-25 20:44:00,72.7,70.2,29.83,South,180,1.6,1.6,92,0.00,,,0.00,meteobridge,2013-02-26 01:44:00,
2013-02-25 20:49:00,72.5,70.3,29.83,SE,135,1.6,1.6,93,0.00,,,0.00,meteobridge,2013-02-26 01:49:00,
2013-02-25 20:55:00,72.5,70.3,29.83,SE,135,1.6,1.6,93,0.00,,,0.00,meteobridge,2013-02-26 01:55:00,
2013-02-25 21:00:00,72.3,70.2,29.83,South,180,1.6,2.2,93,0.00,,,0.00,meteobridge,2013-02-26 02:00:00,
2013-02-25 21:05:00,72.1,70.0,29.83,South,180,1.6,2.2,93,0.00,,,0.00,meteobridge,2013-02-26 02:05:00,
2013-02-25 21:10:00,72.1,70.0,29.83,South,180,0.7,1.6,93,0.00,,,0.00,meteobridge,2013-02-26 02:10:00,
2013-02-25 21:15:00,72.0,70.2,29.83,South,180,0.7,1.6,94,0.00,,,0.00,meteobridge,2013-02-26 02:15:00,
2013-02-25 21:20:00,71.8,70.0,29.83,West,270,1.6,2.2,94,0.00,,,0.00,meteobridge,2013-02-26 02:20:00,
2013-02-25 21:26:00,71.8,70.0,29.83,SSW,203,1.6,2.2,94,0.00,,,0.00,meteobridge,2013-02-26 02:26:00,
2013-02-25 21:31:00,71.8,70.3,29.83,South,180,2.2,2.2,95,0.00,,,0.00,meteobridge,2013-02-26 02:31:00,
2013-02-25 21:36:00,71.8,70.3,29.83,South,180,2.2,2.2,95,0.00,,,0.00,meteobridge,2013-02-26 02:36:00,
2013-02-25 21:41:00,71.6,70.2,29.83,South,180,0.7,2.2,95,0.00,,,0.00,meteobridge,2013-02-26 02:41:00,
2013-02-25 21:46:00,71.6,70.2,29.83,South,180,1.6,1.6,95,0.00,,,0.00,meteobridge,2013-02-26 02:46:00,
2013-02-25 21:51:00,71.4,70.2,29.83,SE,135,1.6,2.2,96,0.00,,,0.00,meteobridge,2013-02-26 02:51:00,
2013-02-25 21:56:00,71.4,70.2,29.83,South,180,3.1,3.1,96,0.00,,,0.00,meteobridge,2013-02-26 02:56:00,
2013-02-25 22:02:00,71.6,70.3,29.84,SW,225,3.8,4.5,96,0.00,,,0.00,meteobridge,2013-02-26 03:02:00,
2013-02-25 22:07:00,71.8,70.5,29.83,South,180,5.4,5.4,96,0.00,,,0.00,meteobridge,2013-02-26 03:07:00,
2013-02-25 22:12:00,72.0,70.7,29.83,SSE,158,2.2,3.8,96,0.00,,,0.00,meteobridge,2013-02-26 03:12:00,
2013-02-25 22:17:00,72.0,70.7,29.83,South,180,3.8,3.8,96,0.00,,,0.00,meteobridge,2013-02-26 03:17:00,
2013-02-25 22:22:00,72.1,70.7,29.83,SSE,158,3.1,3.8,95,0.00,,,0.00,meteobridge,2013-02-26 03:22:00,
2013-02-25 22:27:00,72.1,70.7,29.83,South,180,2.2,3.8,95,0.00,,,0.00,meteobridge,2013-02-26 03:27:00,
2013-02-25 22:32:00,72.1,70.7,29.84,South,180,3.1,3.1,95,0.00,,,0.00,meteobridge,2013-02-26 03:32:00,
2013-02-25 22:38:00,72.1,70.7,29.84,South,180,3.8,5.4,95,0.00,,,0.00,meteobridge,2013-02-26 03:38:00,
2013-02-25 22:43:00,72.3,70.9,29.84,SE,135,6.0,6.9,95,0.00,,,0.00,meteobridge,2013-02-26 03:43:00,
2013-02-25 22:48:00,72.5,71.1,29.84,SE,135,4.5,6.0,95,0.00,,,0.00,meteobridge,2013-02-26 03:48:00,
2013-02-25 22:53:00,72.7,71.2,29.84,South,180,6.0,7.6,95,0.00,,,0.00,meteobridge,2013-02-26 03:53:00,
2013-02-25 22:58:00,72.9,71.4,29.84,South,180,3.8,7.6,95,0.00,,,0.00,meteobridge,2013-02-26 03:58:00,
2013-02-25 23:03:00,73.2,71.4,29.85,South,180,4.5,9.2,94,0.00,,,0.00,meteobridge,2013-02-26 04:03:00,
2013-02-25 23:09:00,73.4,72.0,29.84,South,180,8.3,8.3,95,0.00,,,0.00,meteobridge,2013-02-26 04:09:00,
2013-02-25 23:14:00,73.4,72.0,29.85,South,180,5.4,6.0,95,0.00,,,0.00,meteobridge,2013-02-26 04:14:00,
2013-02-25 23:19:00,73.4,71.6,29.84,SE,135,5.4,9.2,94,0.00,,,0.00,meteobridge,2013-02-26 04:19:00,
2013-02-25 23:24:00,73.2,71.1,29.84,East,90,8.3,8.3,93,0.00,,,0.00,meteobridge,2013-02-26 04:24:00,
2013-02-25 23:29:00,73.2,71.1,29.85,South,180,6.0,6.9,93,0.00,,,0.00,meteobridge,2013-02-26 04:29:00,
2013-02-25 23:34:00,73.0,70.9,29.84,SSE,158,6.9,6.9,93,0.00,,,0.00,meteobridge,2013-02-26 04:34:00,
2013-02-25 23:40:00,73.2,71.1,29.84,South,180,7.6,7.6,93,0.00,,,0.00,meteobridge,2013-02-26 04:40:00,
2013-02-25 23:45:00,73.2,71.1,29.83,SE,135,5.4,6.0,93,0.00,,,0.00,meteobridge,2013-02-26 04:45:00,
2013-02-25 23:50:00,73.0,70.9,29.83,South,180,5.4,9.8,93,0.00,,,0.00,meteobridge,2013-02-26 04:50:00,
2013-02-25 23:55:00,73.0,70.9,29.83,SSW,203,10.7,10.7,93,0.00,,,0.00,meteobridge,2013-02-26 04:55:00,